WDBP weather

Wanda Beach Helipad
Cronulla, New South Wales, Australia

Public forecast

Using degrees Celsius for public forecast. Weather courtesy of forecast.io.

METAR (pilot weather report)

Closest report is Sydney Kingsford Smith International Airport, 5.7 nm (10.6 km) N. Retrieved 2019/04/21 22:30 UTC (15 minutes ago):

YSSY 212230Z 35001KT CAVOK 23/16 Q1022 FM0000 02010KT CAVOK

TAF (pilot weather forecast)

Closest forecast is Sydney Kingsford Smith International Airport, 5.7 nm (10.6 km) N. Retrieved 2019/04/21 18:00 UTC (5 hours ago):

TAF YSSY 211616Z 2118/2224 34005KT CAVOK FM220100 05015KT 9999 FEW035 FM221000 03008KT 9999 FEW025 FM221800 20008KT 9999 -SHRA SCT025